Time;durP1;ratioP1;P1;durP2;ratioP2;P2;SDS_P1;SDS_P2;PMS_P1;PMS_P2;Temp;Humidity;BMP_temperature;BMP_pressure;BME280_temperature;BME280_humidity;BME280_pressure;Samples;Min_cycle;Max_cycle;Signal;HPM_P1;HPM_P2
2023/07/12 00:01:51;;;;;;;1.27;1.00;;;23.20;99.90;;;;;;4182689;28;20553;-60
2023/07/12 00:03:52;;;;;;;3.08;1.10;;;23.30;99.90;;;;;;4183533;28;20041;-60
2023/07/12 00:05:53;;;;;;;2.65;1.10;;;23.20;99.90;;;;;;4184730;28;20123;-60
2023/07/12 00:07:56;;;;;;;5.32;2.13;;;23.20;99.90;;;;;;4184459;28;20048;-61
2023/07/12 00:09:56;;;;;;;3.05;1.40;;;23.10;99.90;;;;;;4183270;28;20387;-61
2023/07/12 00:11:57;;;;;;;5.47;1.80;;;23.10;99.90;;;;;;4182412;28;20038;-62
2023/07/12 00:13:57;;;;;;;5.80;1.48;;;23.10;99.90;;;;;;4181291;28;20040;-62
2023/07/12 00:15:58;;;;;;;5.18;1.65;;;23.00;99.90;;;;;;4184619;28;20590;-61
2023/07/12 00:17:58;;;;;;;4.43;1.50;;;23.00;99.90;;;;;;4179988;28;20025;-61
2023/07/12 00:19:59;;;;;;;3.45;1.63;;;23.00;99.90;;;;;;4183751;28;20118;-61
2023/07/12 00:22:00;;;;;;;3.20;1.67;;;23.00;99.90;;;;;;4170314;28;20036;-61
2023/07/12 00:24:01;;;;;;;4.43;1.73;;;23.00;99.90;;;;;;4180749;28;20116;-61
2023/07/12 00:26:10;;;;;;;3.75;1.60;;;23.00;99.90;;;;;;4183719;28;20086;-66
2023/07/12 00:28:25;;;;;;;2.00;1.27;;;23.10;99.90;;;;;;4182296;28;20088;-61
2023/07/12 00:30:32;;;;;;;4.03;1.40;;;23.00;99.90;;;;;;4177846;28;20069;-61
2023/07/12 00:32:32;;;;;;;2.58;1.35;;;23.10;99.90;;;;;;4178162;28;20071;-62
2023/07/12 00:34:33;;;;;;;2.50;1.40;;;23.10;99.90;;;;;;4182713;28;20097;-61
2023/07/12 00:36:34;;;;;;;1.75;1.02;;;23.10;99.90;;;;;;4186931;28;20025;-62
2023/07/12 00:38:35;;;;;;;3.85;1.65;;;23.20;99.90;;;;;;4174182;28;20120;-62
2023/07/12 00:41:02;;;;;;;7.30;1.50;;;23.20;99.90;;;;;;4185613;28;20059;-62
2023/07/12 00:43:18;;;;;;;4.90;1.45;;;23.20;99.90;;;;;;4181873;28;20029;-62
2023/07/12 00:45:19;;;;;;;2.92;1.50;;;23.20;99.90;;;;;;4184967;28;20042;-61
2023/07/12 00:47:20;;;;;;;4.53;1.67;;;23.20;99.90;;;;;;4182822;28;20480;-61
2023/07/12 00:49:21;;;;;;;2.07;1.20;;;23.20;99.90;;;;;;4184790;28;20052;-61
2023/07/12 00:51:30;;;;;;;4.43;1.40;;;23.10;99.90;;;;;;4180391;28;20357;-61
2023/07/12 00:53:31;;;;;;;3.92;1.33;;;23.00;99.90;;;;;;4184787;28;20039;-61
2023/07/12 00:56:05;;;;;;;2.78;1.15;;;23.00;99.90;;;;;;4177464;28;20063;-61
2023/07/12 00:58:05;;;;;;;2.33;1.10;;;23.00;99.90;;;;;;4152409;28;20045;-61
2023/07/12 01:00:10;;;;;;;3.67;1.13;;;23.00;99.90;;;;;;4153793;28;20029;-65
2023/07/12 01:02:12;;;;;;;2.10;1.00;;;23.00;99.90;;;;;;4155715;28;20555;-61
2023/07/12 01:04:17;;;;;;;2.60;1.63;;;23.00;99.90;;;;;;4156368;28;20042;-61
2023/07/12 01:06:19;;;;;;;1.73;1.10;;;22.90;99.90;;;;;;4154858;28;20524;-61
2023/07/12 01:08:21;;;;;;;4.85;1.33;;;22.90;99.90;;;;;;4155503;28;20057;-61
2023/07/12 01:10:21;;;;;;;1.95;1.35;;;22.90;99.90;;;;;;4155636;28;20717;-61
2023/07/12 01:12:22;;;;;;;2.15;1.23;;;22.80;99.90;;;;;;4160223;28;20053;-61
2023/07/12 01:14:23;;;;;;;2.13;1.25;;;22.80;99.90;;;;;;4158705;28;20029;-61
2023/07/12 01:16:24;;;;;;;1.98;1.08;;;22.70;99.90;;;;;;4159311;28;20389;-61
2023/07/12 01:18:25;;;;;;;2.38;1.33;;;22.70;99.90;;;;;;4157280;28;20095;-61
2023/07/12 01:20:26;;;;;;;2.20;1.10;;;22.70;99.90;;;;;;4159642;28;20488;-61
2023/07/12 01:22:27;;;;;;;2.67;1.48;;;22.70;99.90;;;;;;4159233;28;20124;-61
2023/07/12 01:24:31;;;;;;;2.80;1.20;;;22.70;99.90;;;;;;4160376;28;20030;-61
2023/07/12 01:26:36;;;;;;;1.98;1.17;;;22.70;99.90;;;;;;4159082;28;20377;-61
2023/07/12 01:28:37;;;;;;;5.47;1.60;;;22.70;99.90;;;;;;4157049;28;20065;-61
2023/07/12 01:30:39;;;;;;;6.20;1.90;;;22.70;99.90;;;;;;4154700;28;20357;-62
2023/07/12 01:32:40;;;;;;;4.65;1.60;;;22.70;99.90;;;;;;4160141;28;20034;-60
2023/07/12 01:34:41;;;;;;;3.13;1.38;;;22.60;99.90;;;;;;4163191;28;20393;-60
2023/07/12 01:36:41;;;;;;;4.28;1.50;;;22.60;99.90;;;;;;4177138;28;20116;-60
2023/07/12 01:38:42;;;;;;;3.75;1.60;;;22.60;99.90;;;;;;4177366;28;20374;-60
2023/07/12 01:40:42;;;;;;;3.72;1.80;;;22.50;99.90;;;;;;4178403;28;20037;-60
2023/07/12 01:42:44;;;;;;;2.80;1.52;;;22.50;99.90;;;;;;4165942;28;20026;-60
2023/07/12 01:44:44;;;;;;;3.50;1.73;;;22.50;99.90;;;;;;4162260;28;20425;-59
2023/07/12 01:46:45;;;;;;;2.10;1.20;;;22.40;99.90;;;;;;4162178;28;20037;-59
2023/07/12 01:48:46;;;;;;;3.22;1.77;;;22.40;99.90;;;;;;4162094;28;20461;-59
2023/07/12 01:50:46;;;;;;;2.58;1.15;;;22.40;99.90;;;;;;4175249;28;20388;-59
2023/07/12 01:52:47;;;;;;;1.92;1.05;;;22.40;99.90;;;;;;4177694;28;20029;-59
2023/07/12 01:54:47;;;;;;;3.17;1.50;;;22.30;99.90;;;;;;4177258;28;20040;-59
2023/07/12 01:56:48;;;;;;;4.05;1.70;;;22.30;99.90;;;;;;4177029;28;20037;-59
2023/07/12 01:58:48;;;;;;;3.33;1.40;;;22.30;99.90;;;;;;4177085;28;20041;-59
2023/07/12 02:00:50;;;;;;;3.45;1.60;;;22.20;99.90;;;;;;4178085;28;20393;-59
2023/07/12 02:02:51;;;;;;;1.90;1.20;;;22.20;99.90;;;;;;4177605;28;20404;-59
2023/07/12 02:04:51;;;;;;;5.32;2.08;;;22.20;99.90;;;;;;4178509;28;20033;-59
2023/07/12 02:06:52;;;;;;;1.98;1.15;;;22.20;99.90;;;;;;4176102;28;20123;-59
2023/07/12 02:08:52;;;;;;;2.67;1.50;;;22.10;99.90;;;;;;4177836;28;20361;-59
2023/07/12 02:10:53;;;;;;;2.80;1.40;;;22.20;99.90;;;;;;4176751;28;20033;-59
2023/07/12 02:12:54;;;;;;;1.92;1.20;;;22.20;99.90;;;;;;4179198;28;20052;-59
2023/07/12 02:14:54;;;;;;;1.38;1.02;;;22.20;99.90;;;;;;4178725;28;20021;-59
2023/07/12 02:16:55;;;;;;;2.33;1.25;;;22.20;99.90;;;;;;4177848;28;20033;-59
2023/07/12 02:18:55;;;;;;;2.45;1.52;;;22.30;99.90;;;;;;4176245;28;20041;-59
2023/07/12 02:20:56;;;;;;;2.22;1.45;;;22.30;99.90;;;;;;4177070;28;20029;-60
2023/07/12 02:22:56;;;;;;;2.05;1.40;;;22.30;99.90;;;;;;4178075;28;20032;-59
2023/07/12 02:24:57;;;;;;;3.65;1.67;;;22.30;99.90;;;;;;4178640;28;20033;-59
2023/07/12 02:26:57;;;;;;;3.45;1.85;;;22.20;99.90;;;;;;4177958;28;20520;-59
2023/07/12 02:28:58;;;;;;;1.88;1.25;;;22.10;99.90;;;;;;4177062;28;20116;-59
2023/07/12 02:31:20;;;;;;;3.55;1.70;;;22.10;99.90;;;;;;4177841;28;20492;-59
2023/07/12 02:33:21;;;;;;;4.13;1.60;;;22.10;99.90;;;;;;4166390;28;20029;-59
2023/07/12 02:35:27;;;;;;;2.88;2.13;;;22.00;99.90;;;;;;4177422;28;20087;-59
2023/07/12 02:37:28;;;;;;;4.43;1.98;;;21.90;99.90;;;;;;4177161;28;20132;-59
2023/07/12 02:39:29;;;;;;;4.23;2.03;;;21.90;99.90;;;;;;4176636;28;20056;-59
2023/07/12 02:41:30;;;;;;;4.50;2.45;;;21.70;99.90;;;;;;4159935;28;20049;-59
2023/07/12 02:43:30;;;;;;;5.88;2.22;;;21.60;99.90;;;;;;4178451;28;20032;-59
2023/07/12 02:45:31;;;;;;;6.07;2.40;;;21.50;99.90;;;;;;4177582;28;20045;-60
2023/07/12 02:47:32;;;;;;;5.45;2.58;;;21.40;99.90;;;;;;4177984;28;20033;-59
2023/07/12 02:49:33;;;;;;;5.18;2.50;;;21.20;99.90;;;;;;4163352;28;20028;-59
2023/07/12 02:51:33;;;;;;;4.57;2.22;;;21.10;99.90;;;;;;4161107;28;20453;-60
2023/07/12 02:53:34;;;;;;;3.78;1.98;;;21.10;99.90;;;;;;4162098;28;20042;-60
2023/07/12 02:55:36;;;;;;;3.22;1.90;;;21.10;99.90;;;;;;4161176;28;20036;-59
2023/07/12 02:57:36;;;;;;;3.17;1.58;;;21.10;99.90;;;;;;4161796;28;20503;-59
2023/07/12 02:59:37;;;;;;;3.42;1.83;;;21.10;99.90;;;;;;4160579;28;20026;-59
2023/07/12 03:01:38;;;;;;;4.22;1.80;;;21.10;99.90;;;;;;4161380;28;20037;-59
2023/07/12 03:03:39;;;;;;;2.38;1.63;;;21.10;99.90;;;;;;4161918;28;20038;-58
2023/07/12 03:05:40;;;;;;;2.92;1.83;;;21.20;99.90;;;;;;4159686;28;20062;-59
2023/07/12 03:07:41;;;;;;;4.47;2.38;;;21.10;99.90;;;;;;4161030;28;20033;-59
2023/07/12 03:09:42;;;;;;;4.18;1.58;;;21.10;99.90;;;;;;4161362;28;20461;-59
2023/07/12 03:11:49;;;;;;;3.47;2.20;;;21.00;99.90;;;;;;4160940;28;20029;-58
2023/07/12 03:13:50;;;;;;;5.10;1.70;;;21.00;99.90;;;;;;4159098;28;20393;-59
2023/07/12 03:15:51;;;;;;;2.95;1.63;;;20.90;99.90;;;;;;4160897;28;20034;-59
2023/07/12 03:17:51;;;;;;;3.97;1.77;;;20.90;99.90;;;;;;4161823;28;20041;-59
2023/07/12 03:19:52;;;;;;;3.85;2.05;;;20.90;99.90;;;;;;4163452;28;20033;-59
2023/07/12 03:21:52;;;;;;;3.22;1.50;;;21.00;99.90;;;;;;4176999;28;20040;-59
2023/07/12 03:23:53;;;;;;;4.13;1.27;;;21.00;99.90;;;;;;4177888;28;20041;-59
2023/07/12 03:25:53;;;;;;;5.22;1.90;;;21.00;99.90;;;;;;4176673;28;20132;-59
2023/07/12 03:27:54;;;;;;;1.92;1.35;;;21.00;99.90;;;;;;4177395;28;20029;-59
2023/07/12 03:29:55;;;;;;;3.47;1.63;;;21.00;99.90;;;;;;4175479;28;20033;-59
2023/07/12 03:31:56;;;;;;;3.42;1.77;;;21.00;99.90;;;;;;4176696;28;20120;-59
2023/07/12 03:33:57;;;;;;;4.82;1.80;;;21.00;99.90;;;;;;4175904;28;20025;-59
2023/07/12 03:35:59;;;;;;;3.25;1.60;;;21.00;99.90;;;;;;4175498;28;20565;-59
2023/07/12 03:37:59;;;;;;;4.35;2.15;;;20.90;99.90;;;;;;4177510;28;20029;-59
2023/07/12 03:40:00;;;;;;;3.88;1.77;;;20.90;99.90;;;;;;4174123;28;20080;-59
2023/07/12 03:42:01;;;;;;;5.25;1.90;;;20.90;99.90;;;;;;4176105;28;20472;-59
2023/07/12 03:44:01;;;;;;;4.88;2.15;;;20.80;99.90;;;;;;4177602;28;20036;-59
2023/07/12 03:46:04;;;;;;;5.30;2.05;;;20.70;99.90;;;;;;4176392;28;20037;-59
2023/07/12 03:48:05;;;;;;;;;;;20.60;99.90;;;;;;4173192;28;20048;-60
2023/07/12 03:50:06;;;;;;;3.20;1.50;;;20.60;99.90;;;;;;4162072;28;19919;-60
2023/07/12 03:52:07;;;;;;;3.90;1.90;;;20.70;99.90;;;;;;4175898;28;20025;-59
2023/07/12 03:54:07;;;;;;;6.95;1.85;;;20.60;99.90;;;;;;4169077;28;20522;-59
2023/07/12 03:56:09;;;;;;;4.68;2.05;;;20.60;99.90;;;;;;4160619;28;20041;-59
2023/07/12 03:58:12;;;;;;;2.97;1.73;;;20.60;99.90;;;;;;4150801;28;20034;-59
2023/07/12 04:00:13;;;;;;;2.92;1.45;;;20.60;99.90;;;;;;4169123;28;20045;-59
2023/07/12 04:02:15;;;;;;;5.32;2.08;;;20.60;99.90;;;;;;4176122;28;20036;-59
2023/07/12 04:04:15;;;;;;;3.65;1.85;;;20.60;99.90;;;;;;4176727;28;20484;-61
2023/07/12 04:06:16;;;;;;;3.47;1.73;;;20.50;99.90;;;;;;4176087;28;20040;-61
2023/07/12 04:08:17;;;;;;;3.45;1.70;;;20.50;99.90;;;;;;4175949;28;20029;-61
2023/07/12 04:10:18;;;;;;;3.67;1.42;;;20.50;99.90;;;;;;4173695;28;20064;-60
2023/07/12 04:12:19;;;;;;;4.07;1.80;;;20.50;99.90;;;;;;4177149;28;20056;-61
2023/07/12 04:14:19;;;;;;;2.75;1.58;;;20.60;99.90;;;;;;4176315;28;20025;-61
2023/07/12 04:16:21;;;;;;;3.25;1.70;;;20.60;99.90;;;;;;4174719;28;20099;-61
2023/07/12 04:18:23;;;;;;;4.17;1.70;;;20.50;99.90;;;;;;4174853;28;20037;-60
2023/07/12 04:20:24;;;;;;;5.25;2.13;;;20.50;99.90;;;;;;4175878;28;20060;-60
2023/07/12 04:22:24;;;;;;;3.90;1.52;;;20.50;99.90;;;;;;4176630;28;20044;-60
2023/07/12 04:24:25;;;;;;;3.67;2.00;;;20.50;99.90;;;;;;4176386;28;20037;-60
2023/07/12 04:26:26;;;;;;;2.53;1.88;;;20.40;99.90;;;;;;4175556;28;20292;-60
2023/07/12 04:28:27;;;;;;;4.57;1.63;;;20.30;99.90;;;;;;4157806;28;20519;-60
2023/07/12 04:30:28;;;;;;;3.42;1.98;;;20.30;99.90;;;;;;4174314;28;20456;-60
2023/07/12 04:32:29;;;;;;;3.92;1.65;;;20.30;99.90;;;;;;4174183;28;20040;-60
2023/07/12 04:34:30;;;;;;;3.50;1.65;;;20.20;99.90;;;;;;4175587;28;20041;-61
2023/07/12 04:36:30;;;;;;;2.95;1.63;;;20.30;99.90;;;;;;4178981;28;20117;-61
2023/07/12 04:38:32;;;;;;;3.33;1.60;;;20.30;99.90;;;;;;4172135;28;20041;-61
2023/07/12 04:40:32;;;;;;;3.40;1.55;;;20.30;99.90;;;;;;4158010;28;20053;-60
2023/07/12 04:42:33;;;;;;;2.90;1.80;;;20.30;99.90;;;;;;4160067;28;20095;-61
2023/07/12 04:44:33;;;;;;;3.17;1.77;;;20.20;99.90;;;;;;4157747;28;20030;-61
2023/07/12 04:46:34;;;;;;;2.78;1.70;;;20.20;99.90;;;;;;4157540;28;20033;-63
2023/07/12 04:48:35;;;;;;;2.80;1.40;;;20.20;99.90;;;;;;4161675;28;20063;-61
2023/07/12 04:50:36;;;;;;;4.15;1.50;;;20.20;99.90;;;;;;4175224;28;20552;-61
2023/07/12 04:52:37;;;;;;;3.22;1.42;;;20.20;99.90;;;;;;4176864;28;20515;-61
2023/07/12 04:54:42;;;;;;;1.77;1.00;;;20.20;99.90;;;;;;4176345;28;20033;-61
2023/07/12 04:56:42;;;;;;;3.53;1.30;;;20.20;99.90;;;;;;4175317;28;20037;-61
2023/07/12 04:58:43;;;;;;;2.25;1.58;;;20.20;99.90;;;;;;4174005;28;20017;-60
2023/07/12 05:00:44;;;;;;;2.05;1.40;;;20.20;99.90;;;;;;4171875;28;20515;-61
2023/07/12 05:02:46;;;;;;;2.65;1.33;;;20.20;99.90;;;;;;4160065;28;20034;-65
2023/07/12 05:04:47;;;;;;;2.28;1.40;;;20.20;99.90;;;;;;4155597;28;20110;-60
2023/07/12 05:06:47;;;;;;;2.60;1.42;;;20.20;99.90;;;;;;4175076;28;20497;-61
2023/07/12 05:08:48;;;;;;;2.35;1.40;;;20.20;99.90;;;;;;4174286;28;20170;-61
2023/07/12 05:10:49;;;;;;;8.05;1.55;;;20.20;99.90;;;;;;4176560;28;20033;-61
2023/07/12 05:12:50;;;;;;;3.85;1.50;;;20.20;99.90;;;;;;4179933;28;20037;-61
2023/07/12 05:14:51;;;;;;;2.33;1.50;;;20.20;99.90;;;;;;4177761;28;20478;-60
2023/07/12 05:16:51;;;;;;;1.67;1.40;;;20.10;99.90;;;;;;4177994;28;20033;-61
2023/07/12 05:18:52;;;;;;;2.25;1.10;;;20.10;99.90;;;;;;4176381;28;20112;-61
2023/07/12 05:20:53;;;;;;;3.58;1.42;;;20.10;99.90;;;;;;4160129;28;20067;-61
2023/07/12 05:22:53;;;;;;;5.30;1.10;;;20.10;99.90;;;;;;4170445;28;20127;-61
2023/07/12 05:24:57;;;;;;;2.17;1.10;;;20.10;99.90;;;;;;4176357;28;20060;-60
2023/07/12 05:26:58;;;;;;;2.35;1.30;;;20.20;99.90;;;;;;4172068;28;20052;-61
2023/07/12 05:28:58;;;;;;;3.85;1.40;;;20.20;99.90;;;;;;4160308;28;20246;-61
2023/07/12 05:31:05;;;;;;;3.80;1.70;;;20.30;99.90;;;;;;4174241;28;20063;-61
2023/07/12 05:33:05;;;;;;;2.78;1.50;;;20.10;99.90;;;;;;4178450;28;20484;-61
2023/07/12 05:35:06;;;;;;;2.05;1.60;;;19.90;99.90;;;;;;4177152;28;20044;-62
2023/07/12 05:37:10;;;;;;;4.40;1.98;;;19.90;99.90;;;;;;4169680;28;20037;-62
2023/07/12 05:39:10;;;;;;;8.85;2.00;;;19.90;99.90;;;;;;4176003;28;20433;-61
2023/07/12 05:41:11;;;;;;;3.35;1.52;;;19.90;99.90;;;;;;4173300;28;20036;-62
2023/07/12 05:43:13;;;;;;;6.13;1.92;;;19.80;99.90;;;;;;4179006;28;20108;-61
2023/07/12 05:45:14;;;;;;;3.20;1.40;;;19.80;99.90;;;;;;4171337;28;20041;-61
2023/07/12 05:47:15;;;;;;;2.40;1.42;;;19.80;99.90;;;;;;4178281;28;20040;-61
2023/07/12 05:49:16;;;;;;;5.57;1.90;;;19.80;99.90;;;;;;4174151;28;20072;-61
2023/07/12 05:51:16;;;;;;;3.33;1.52;;;19.60;99.90;;;;;;4177980;28;20424;-61
2023/07/12 05:53:17;;;;;;;6.90;1.63;;;19.60;99.90;;;;;;4168834;28;20045;-61
2023/07/12 05:55:18;;;;;;;3.88;1.60;;;19.60;99.90;;;;;;4176433;28;20053;-61
2023/07/12 05:57:19;;;;;;;2.83;1.45;;;19.50;99.90;;;;;;4170141;28;20036;-64
2023/07/12 05:59:21;;;;;;;5.93;2.13;;;19.50;99.90;;;;;;4170848;28;20064;-62
2023/07/12 06:01:21;;;;;;;4.53;1.70;;;19.40;99.90;;;;;;4176972;28;20794;-61
2023/07/12 06:03:22;;;;;;;3.08;1.52;;;19.50;99.90;;;;;;4176349;28;20545;-61
2023/07/12 06:05:23;;;;;;;4.65;1.80;;;19.40;99.90;;;;;;4176682;28;20037;-61
2023/07/12 06:07:23;;;;;;;2.80;1.55;;;19.50;99.90;;;;;;4177553;28;20384;-61
2023/07/12 06:09:24;;;;;;;5.28;1.60;;;19.70;99.90;;;;;;4177665;28;20033;-61
2023/07/12 06:11:24;;;;;;;5.93;1.88;;;19.90;99.90;;;;;;4177864;28;20051;-61
2023/07/12 06:13:25;;;;;;;5.68;1.50;;;20.20;99.90;;;;;;4177980;28;20079;-61
2023/07/12 06:15:25;;;;;;;5.18;1.83;;;20.30;99.90;;;;;;4175857;28;20063;-61
2023/07/12 06:17:26;;;;;;;4.32;1.67;;;20.50;99.90;;;;;;4176410;28;20037;-61
2023/07/12 06:19:27;;;;;;;2.35;1.50;;;20.70;99.90;;;;;;4177609;28;20168;-61
2023/07/12 06:21:28;;;;;;;3.88;1.63;;;20.90;99.90;;;;;;4177345;28;20040;-61
2023/07/12 06:23:29;;;;;;;4.00;1.58;;;21.20;99.90;;;;;;4174059;28;20029;-61
2023/07/12 06:25:31;;;;;;;3.05;1.35;;;21.40;99.90;;;;;;4177535;28;20048;-61
2023/07/12 06:27:31;;;;;;;4.50;1.40;;;21.70;99.90;;;;;;4181116;28;20033;-61
2023/07/12 06:29:32;;;;;;;2.95;1.17;;;21.80;99.90;;;;;;4171967;28;20029;-61
2023/07/12 06:31:32;;;;;;;4.80;1.45;;;22.00;99.90;;;;;;4176581;28;20404;-61
2023/07/12 06:33:33;;;;;;;2.47;1.40;;;22.30;99.90;;;;;;4178967;28;20032;-61
2023/07/12 06:35:33;;;;;;;2.78;1.23;;;22.60;99.90;;;;;;4179333;28;20041;-61
2023/07/12 06:37:34;;;;;;;3.17;1.25;;;22.70;99.90;;;;;;4178641;28;20017;-61
2023/07/12 06:39:38;;;;;;;4.05;1.15;;;22.80;99.90;;;;;;4174075;28;20157;-62
2023/07/12 06:41:39;;;;;;;6.43;1.77;;;23.00;99.90;;;;;;4158891;28;20508;-62
2023/07/12 06:43:39;;;;;;;3.08;0.93;;;23.00;99.90;;;;;;4178273;28;20017;-62
2023/07/12 06:45:43;;;;;;;5.97;1.42;;;22.70;99.90;;;;;;4175962;28;20032;-62
2023/07/12 06:47:44;;;;;;;5.07;1.58;;;22.50;99.90;;;;;;4160299;28;20037;-61
2023/07/12 06:49:44;;;;;;;2.97;1.35;;;22.40;99.90;;;;;;4155451;28;20029;-61
2023/07/12 06:51:46;;;;;;;4.57;1.35;;;22.30;99.90;;;;;;4177432;28;20044;-61
2023/07/12 06:53:46;;;;;;;2.70;1.20;;;22.20;99.90;;;;;;4160203;28;20044;-61
2023/07/12 06:55:48;;;;;;;3.22;1.33;;;22.10;99.90;;;;;;4171103;28;20273;-61
2023/07/12 06:57:48;;;;;;;4.55;1.40;;;22.10;99.90;;;;;;4175462;28;20029;-61
2023/07/12 06:59:49;;;;;;;4.85;1.55;;;21.90;99.90;;;;;;4173354;28;20068;-62
2023/07/12 07:01:49;;;;;;;6.38;1.70;;;21.80;99.90;;;;;;4175648;28;20033;-61
2023/07/12 07:03:50;;;;;;;3.90;1.42;;;21.40;99.90;;;;;;4174391;28;20037;-60
2023/07/12 07:05:50;;;;;;;3.20;1.20;;;21.40;99.90;;;;;;4176816;28;20563;-60
2023/07/12 07:07:51;;;;;;;2.75;1.42;;;21.40;99.90;;;;;;4174132;28;20029;-61
2023/07/12 07:09:52;;;;;;;4.38;1.40;;;21.40;99.90;;;;;;4174885;28;20029;-62
2023/07/12 07:11:52;;;;;;;3.67;1.40;;;21.30;99.90;;;;;;4175668;28;20503;-61
2023/07/12 07:13:53;;;;;;;4.47;1.50;;;21.30;99.90;;;;;;4177559;28;20450;-61
2023/07/12 07:15:54;;;;;;;5.25;1.60;;;21.30;99.90;;;;;;4173980;28;20563;-61
2023/07/12 07:17:55;;;;;;;3.53;1.35;;;21.30;99.90;;;;;;4176946;28;20041;-61
2023/07/12 07:19:55;;;;;;;5.07;1.60;;;21.30;99.90;;;;;;4175625;28;20131;-60
2023/07/12 07:21:56;;;;;;;3.55;1.55;;;21.20;99.90;;;;;;4176033;28;20442;-60
2023/07/12 07:23:56;;;;;;;3.60;1.52;;;21.20;99.90;;;;;;4177137;28;20086;-61
2023/07/12 07:26:04;;;;;;;3.33;1.55;;;21.30;99.90;;;;;;4175497;28;20033;-61
2023/07/12 07:28:05;;;;;;;5.90;1.63;;;21.30;99.90;;;;;;4177353;28;20025;-60
2023/07/12 07:30:07;;;;;;;3.78;1.33;;;21.20;99.90;;;;;;4155099;28;20026;-61
2023/07/12 07:32:07;;;;;;;4.95;1.73;;;21.20;99.90;;;;;;4173317;28;20059;-61
2023/07/12 07:34:08;;;;;;;3.45;1.23;;;21.20;99.90;;;;;;4177564;28;20029;-62
2023/07/12 07:36:12;;;;;;;3.72;1.50;;;21.30;99.90;;;;;;4176620;28;20124;-61
2023/07/12 07:38:13;;;;;;;4.45;1.20;;;21.40;99.90;;;;;;4176175;28;20418;-61
2023/07/12 07:40:15;;;;;;;4.70;1.35;;;21.40;99.90;;;;;;4176442;28;20028;-61
2023/07/12 07:42:16;;;;;;;3.78;1.58;;;21.50;99.90;;;;;;4176595;28;20029;-61
2023/07/12 07:44:16;;;;;;;4.47;1.80;;;21.60;99.90;;;;;;4177811;28;20108;-61
2023/07/12 07:46:17;;;;;;;3.67;1.42;;;21.70;99.90;;;;;;4176467;28;20385;-61
2023/07/12 07:48:18;;;;;;;3.55;1.70;;;21.60;99.90;;;;;;4176663;28;20037;-61
2023/07/12 07:50:20;;;;;;;4.63;1.52;;;21.70;99.90;;;;;;4174406;28;20025;-61
2023/07/12 07:52:20;;;;;;;4.15;1.30;;;21.80;99.90;;;;;;4176717;28;20106;-61
2023/07/12 07:54:21;;;;;;;4.03;1.35;;;21.80;99.90;;;;;;4176528;28;20500;-61
2023/07/12 07:56:21;;;;;;;3.58;1.38;;;21.90;99.90;;;;;;4172566;28;20520;-66
2023/07/12 07:58:22;;;;;;;3.75;1.20;;;22.00;99.90;;;;;;4176170;28;20396;-62
2023/07/12 08:00:23;;;;;;;3.90;1.33;;;22.10;99.90;;;;;;4176390;28;20394;-62
2023/07/12 08:02:23;;;;;;;3.83;1.42;;;22.10;99.90;;;;;;4176639;28;20423;-61
2023/07/12 08:04:24;;;;;;;6.55;1.73;;;22.20;99.90;;;;;;4176522;28;20571;-61
2023/07/12 08:06:25;;;;;;;3.17;1.10;;;22.20;99.90;;;;;;4176563;28;20083;-61
2023/07/12 08:08:25;;;;;;;3.55;1.40;;;22.20;99.90;;;;;;4176533;28;20076;-60
2023/07/12 08:10:28;;;;;;;4.53;1.40;;;22.30;99.90;;;;;;4176356;28;20124;-61
2023/07/12 08:12:29;;;;;;;;;;;22.40;99.90;;;;;;4172916;28;20045;-61
2023/07/12 08:14:30;;;;;;;5.40;1.50;;;22.30;99.90;;;;;;4176477;28;19909;-61
2023/07/12 08:16:33;;;;;;;4.22;1.33;;;22.30;99.90;;;;;;4174217;28;20498;-61
2023/07/12 08:18:34;;;;;;;4.57;1.63;;;22.30;99.90;;;;;;4173705;28;20033;-61
2023/07/12 08:20:35;;;;;;;4.32;1.48;;;22.20;99.90;;;;;;4175999;28;20132;-61
2023/07/12 08:22:36;;;;;;;4.32;1.48;;;22.20;99.90;;;;;;4176776;28;20369;-61
2023/07/12 08:24:36;;;;;;;4.40;1.50;;;22.10;99.90;;;;;;4176667;28;20025;-61
2023/07/12 08:26:37;;;;;;;4.43;1.30;;;22.10;99.90;;;;;;4176023;28;20033;-61
2023/07/12 08:28:37;;;;;;;3.13;1.50;;;22.10;99.90;;;;;;4174488;28;20041;-61
2023/07/12 08:30:38;;;;;;;5.78;1.77;;;22.00;99.90;;;;;;4174981;28;20429;-61
2023/07/12 08:32:39;;;;;;;3.85;1.67;;;22.00;99.90;;;;;;4178701;28;20052;-65
2023/07/12 08:34:39;;;;;;;6.50;1.80;;;21.90;99.90;;;;;;4177202;28;20060;-61
2023/07/12 08:36:40;;;;;;;4.97;1.50;;;22.00;99.90;;;;;;4176114;28;20448;-62
2023/07/12 08:38:40;;;;;;;8.23;1.58;;;21.90;99.90;;;;;;4176226;28;20094;-62
2023/07/12 08:40:48;;;;;;;4.30;1.48;;;22.00;99.90;;;;;;4175498;28;20499;-62
2023/07/12 08:42:48;;;;;;;3.13;1.48;;;21.90;99.90;;;;;;4175847;28;20113;-61
2023/07/12 08:44:50;;;;;;;4.38;1.30;;;21.90;99.90;;;;;;4176920;28;20124;-62
2023/07/12 08:46:56;;;;;;;3.33;1.45;;;21.80;99.90;;;;;;4175791;28;20039;-61
2023/07/12 08:49:00;;;;;;;4.57;1.60;;;21.80;99.90;;;;;;4169849;28;20187;-61
2023/07/12 08:51:05;;;;;;;4.97;1.90;;;21.80;99.90;;;;;;4176194;28;20112;-62
2023/07/12 08:53:12;;;;;;;4.13;1.55;;;21.90;99.90;;;;;;4158305;28;20439;-61
2023/07/12 08:55:19;;;;;;;6.28;1.45;;;22.00;99.90;;;;;;4174563;28;20162;-62
2023/07/12 08:57:25;;;;;;;4.93;1.70;;;22.10;99.90;;;;;;4175868;28;20032;-62
2023/07/12 08:59:26;;;;;;;7.80;2.00;;;22.10;99.90;;;;;;4174754;28;20036;-61
2023/07/12 09:01:36;;;;;;;6.43;1.90;;;22.20;99.90;;;;;;4157864;28;20484;-61
2023/07/12 09:03:36;;;;;;;4.93;1.50;;;22.20;99.90;;;;;;4159625;28;20117;-61
2023/07/12 09:05:37;;;;;;;3.83;1.63;;;22.20;99.90;;;;;;4158993;28;20045;-61
2023/07/12 09:07:41;;;;;;;4.60;1.40;;;22.30;99.90;;;;;;4159660;28;20018;-61
2023/07/12 09:09:42;;;;;;;4.78;1.25;;;22.40;99.90;;;;;;4158010;28;20025;-62
2023/07/12 09:11:42;;;;;;;2.75;1.13;;;22.40;99.90;;;;;;4158495;28;20025;-62
2023/07/12 09:13:46;;;;;;;4.53;1.63;;;22.50;99.90;;;;;;4160227;28;20069;-62
2023/07/12 09:15:51;;;;;;;5.18;1.52;;;22.50;99.90;;;;;;4155709;28;20047;-62
2023/07/12 09:17:52;;;;;;;7.53;1.30;;;22.60;99.90;;;;;;4157615;28;20448;-62
2023/07/12 09:19:52;;;;;;;4.15;1.70;;;22.80;99.90;;;;;;4157100;28;20033;-62
2023/07/12 09:22:06;;;;;;;5.18;1.65;;;22.80;99.90;;;;;;4159730;28;20124;-62
2023/07/12 09:24:18;;;;;;;3.30;1.15;;;22.80;99.90;;;;;;4156243;28;20036;-62
2023/07/12 09:26:28;;;;;;;3.53;1.20;;;22.90;99.90;;;;;;4159100;28;20105;-62
2023/07/12 09:28:29;;;;;;;4.70;1.27;;;22.90;99.90;;;;;;4154431;28;20045;-62
2023/07/12 09:30:29;;;;;;;6.50;1.38;;;22.90;99.90;;;;;;4155261;28;20065;-62
2023/07/12 09:32:36;;;;;;;2.42;1.05;;;22.70;99.90;;;;;;4156554;28;20030;-62
2023/07/12 09:34:39;;;;;;;4.30;1.33;;;22.80;99.90;;;;;;4155951;28;20034;-62
2023/07/12 09:36:39;;;;;;;3.63;1.20;;;22.80;99.90;;;;;;4157264;28;20084;-63
2023/07/12 09:38:40;;;;;;;3.63;1.33;;;22.70;99.90;;;;;;4173465;28;20033;-62
2023/07/12 09:40:46;;;;;;;6.47;1.83;;;22.70;99.90;;;;;;4157479;28;20056;-62
2023/07/12 09:42:48;;;;;;;4.88;1.50;;;22.60;99.90;;;;;;4176352;28;20044;-62
2023/07/12 09:44:49;;;;;;;3.20;1.20;;;22.60;99.90;;;;;;4158786;28;20113;-62
2023/07/12 09:47:06;;;;;;;1.65;0.98;;;22.60;99.90;;;;;;4174944;28;20036;-62
2023/07/12 09:49:16;;;;;;;5.75;1.58;;;22.60;99.90;;;;;;4173756;28;20040;-62
2023/07/12 09:51:55;;;;;;;3.28;1.10;;;22.50;99.90;;;;;;4173999;28;20044;-62
2023/07/12 09:54:26;;;;;;;4.20;1.52;;;22.60;99.90;;;;;;4168300;28;20138;-62
2023/07/12 09:56:38;;;;;;;4.65;1.38;;;22.60;99.90;;;;;;4157457;28;20047;-62
2023/07/12 09:58:47;;;;;;;5.32;1.60;;;22.60;99.90;;;;;;4166574;28;20043;-65
2023/07/12 10:00:59;;;;;;;4.03;1.45;;;22.70;99.90;;;;;;4167682;28;20041;-62
2023/07/12 10:03:21;;;;;;;5.25;1.73;;;22.70;99.90;;;;;;4172756;28;20036;-62
2023/07/12 10:05:22;;;;;;;3.25;1.30;;;22.70;99.90;;;;;;4176837;28;20033;-62
2023/07/12 10:07:54;;;;;;;3.50;1.40;;;22.70;99.90;;;;;;4178750;28;20036;-62
2023/07/12 10:09:56;;;;;;;4.40;1.27;;;22.70;99.90;;;;;;4152004;28;20037;-62
2023/07/12 10:12:25;;;;;;;4.57;1.27;;;22.70;99.90;;;;;;4177103;28;20045;-62
2023/07/12 10:14:35;;;;;;;3.20;1.38;;;22.70;99.90;;;;;;4173262;28;20037;-62
2023/07/12 10:16:44;;;;;;;2.33;1.00;;;22.70;99.90;;;;;;4167660;28;20075;-62
2023/07/12 10:18:48;;;;;;;3.58;1.30;;;22.70;99.90;;;;;;4168707;28;20385;-62
2023/07/12 10:20:49;;;;;;;3.72;1.15;;;22.80;99.90;;;;;;4168912;28;20095;-62
2023/07/12 10:22:53;;;;;;;2.45;0.95;;;22.80;99.90;;;;;;4167709;28;25126;-62
2023/07/12 10:24:54;;;;;;;3.72;1.40;;;22.80;99.90;;;;;;4172141;28;20059;-62
2023/07/12 10:26:56;;;;;;;2.50;0.90;;;22.90;99.90;;;;;;4176517;28;20041;-62
2023/07/12 10:29:04;;;;;;;2.03;1.10;;;22.90;99.90;;;;;;4167977;28;20566;-62
2023/07/12 10:31:29;;;;;;;3.78;1.20;;;22.90;99.90;;;;;;4166330;28;20033;-62
2023/07/12 10:33:35;;;;;;;6.35;1.90;;;23.00;99.90;;;;;;4149178;28;20126;-62
2023/07/12 10:35:46;;;;;;;2.85;1.00;;;23.10;99.90;;;;;;4179437;28;20130;-62
2023/07/12 10:37:53;;;;;;;4.50;1.33;;;23.10;99.90;;;;;;4189160;28;20392;-62
2023/07/12 10:39:53;;;;;;;5.25;1.20;;;23.00;99.90;;;;;;4182591;28;20462;-62